createdAt,value
2019-01-08T00:00:48.054Z,100129.05
2019-01-08T00:03:17.135Z,100139.53
2019-01-08T00:05:46.309Z,100141.70
2019-01-08T00:08:15.475Z,100132.55
2019-01-08T00:10:44.556Z,100122.95
2019-01-08T00:13:14.411Z,100112.03
2019-01-08T00:15:43.422Z,100119.47
2019-01-08T00:18:12.476Z,100117.69
2019-01-08T00:20:41.738Z,100115.95
2019-01-08T00:23:10.822Z,100106.34
2019-01-08T00:25:39.837Z,100102.84
2019-01-08T00:28:08.888Z,100098.03
2019-01-08T00:30:37.905Z,100110.25
2019-01-08T00:33:06.960Z,100098.46
2019-01-08T00:35:35.984Z,100110.70
2019-01-08T00:38:05.024Z,100115.05
2019-01-08T00:40:34.062Z,100108.52
2019-01-08T00:43:03.120Z,100115.05
2019-01-08T00:45:32.198Z,100113.76
2019-01-08T09:43:23.691Z,99720.25
2019-01-08T09:45:52.709Z,99722.87
2019-01-08T09:48:21.784Z,99723.27
2019-01-08T09:50:50.877Z,99728.06
2019-01-08T09:53:19.940Z,99724.98
2019-01-08T09:55:49.010Z,99725.88
2019-01-08T09:58:18.099Z,99736.31
2019-01-08T10:00:47.253Z,99727.59
2019-01-08T10:03:16.337Z,99719.30
2019-01-08T10:05:45.453Z,99726.26
2019-01-08T10:08:14.564Z,99719.75
2019-01-08T10:10:43.593Z,99714.10
2019-01-08T10:13:12.642Z,99719.76
2019-01-08T10:15:41.868Z,99716.70
2019-01-08T10:18:10.942Z,99721.05
2019-01-08T10:20:39.961Z,99710.61
2019-01-08T10:23:10.234Z,99713.64
2019-01-08T10:25:39.473Z,99713.63
2019-01-08T10:28:08.549Z,99704.47
2019-01-08T10:30:37.560Z,99709.23
2019-01-08T10:33:06.642Z,99711.41
2019-01-08T10:35:35.662Z,99697.05
2019-01-08T10:38:04.774Z,99692.69
2019-01-08T10:40:33.884Z,99687.02
2019-01-08T10:43:02.950Z,99691.34
2019-01-08T10:45:32.044Z,99690.03
2019-01-08T10:48:01.745Z,99688.30
2019-01-08T10:50:30.838Z,99687.44
2019-01-08T10:52:59.904Z,99677.45
2019-01-08T10:55:28.926Z,99670.44
2019-01-08T10:57:57.980Z,99673.07
2019-01-08T11:00:27.066Z,99673.51
2019-01-08T11:02:56.139Z,99673.05
2019-01-08T11:05:25.790Z,99685.27
2019-01-08T11:07:54.938Z,99679.16
2019-01-08T11:10:24.009Z,99675.69
2019-01-08T11:12:53.043Z,99671.34
2019-01-08T11:15:22.135Z,99659.16
2019-01-08T11:17:52.015Z,99661.30
2019-01-08T11:20:21.044Z,99670.44
2019-01-08T11:22:50.136Z,99663.91
2019-01-08T11:25:19.237Z,99664.38
2019-01-08T11:27:48.335Z,99675.70
2019-01-08T11:30:17.447Z,99679.63
2019-01-08T11:32:46.490Z,99675.30
2019-01-08T11:35:15.625Z,99667.91
2019-01-08T11:37:44.736Z,99680.07
2019-01-08T11:40:13.874Z,99690.98
2019-01-08T11:42:42.908Z,99670.50
2019-01-08T11:45:12.946Z,99666.56
2019-01-08T11:47:41.988Z,99660.47
2019-01-08T11:50:11.118Z,99663.05
2019-01-08T11:52:40.135Z,99667.38
2019-01-08T11:55:09.196Z,99655.56
2019-01-08T11:57:38.275Z,99658.59
2019-01-08T12:00:09.392Z,99660.26
2019-01-08T12:02:38.513Z,99644.48
2019-01-08T12:05:07.541Z,99651.91
2019-01-08T12:07:36.555Z,99649.68
2019-01-08T12:10:05.958Z,99648.38
2019-01-08T12:12:35.026Z,99651.45
2019-01-08T12:15:04.097Z,99663.73
2019-01-08T12:17:33.150Z,99666.73
2019-01-08T12:20:02.262Z,99655.86
2019-01-08T12:22:31.313Z,99648.44
2019-01-08T12:25:00.311Z,99649.32
2019-01-08T12:27:29.483Z,99634.09
2019-01-08T12:29:58.529Z,99642.78
2019-01-08T12:32:27.614Z,99631.48
2019-01-08T12:34:56.647Z,99643.21
2019-01-08T12:37:25.716Z,99648.44
2019-01-08T12:39:54.767Z,99642.33
2019-01-08T12:42:23.863Z,99652.72
2019-01-08T12:44:52.970Z,99650.95
2019-01-08T12:47:22.029Z,99654.84
2019-01-08T12:49:51.245Z,99654.31
2019-01-08T12:52:20.314Z,99647.73
2019-01-08T12:54:49.443Z,99642.92
2019-01-08T12:57:18.469Z,99651.12
2019-01-08T12:59:47.507Z,99644.02
2019-01-08T13:02:16.600Z,99627.05
2019-01-08T13:04:45.667Z,99621.27
2019-01-08T13:07:14.695Z,99616.03
2019-01-08T13:09:43.792Z,99615.10
2019-01-08T13:12:12.891Z,99619.39
2019-01-08T13:14:41.968Z,99613.27
2019-01-08T13:17:11.819Z,99613.69
2019-01-08T13:19:40.927Z,99632.02
2019-01-08T13:22:09.953Z,99625.47
2019-01-08T13:24:39.003Z,99620.19
2019-01-08T13:27:08.085Z,99614.11
2019-01-08T13:29:37.270Z,99625.52
2019-01-08T13:32:06.346Z,99634.69
2019-01-08T13:34:35.395Z,99653.98
2019-01-08T13:37:04.455Z,99621.95
2019-01-08T13:39:33.525Z,99639.95
2019-01-08T13:42:02.641Z,99643.95
2019-01-08T13:44:31.735Z,99648.86
2019-01-08T13:47:00.766Z,99651.51
2019-01-08T13:49:29.830Z,99661.99
2019-01-08T13:51:59.145Z,99652.88
2019-01-08T13:54:28.326Z,99650.20
2019-01-08T13:56:57.433Z,99649.75
2019-01-08T13:59:26.449Z,99649.72
2019-01-08T14:01:55.488Z,99642.69
2019-01-08T14:04:24.515Z,99628.30
2019-01-08T14:06:53.542Z,99648.73
2019-01-08T14:09:22.563Z,99647.88
2019-01-08T14:11:51.696Z,99637.00
2019-01-08T14:14:20.861Z,99631.80
2019-01-08T14:16:49.895Z,99629.22
2019-01-08T14:19:18.899Z,99647.12
2019-01-08T14:21:47.997Z,99649.35
2019-01-08T14:24:17.008Z,99656.34
2019-01-08T14:26:46.045Z,99665.09
2019-01-08T14:29:15.077Z,99662.05
2019-01-08T14:31:44.177Z,99674.24
2019-01-08T14:34:13.195Z,99680.32
2019-01-08T14:36:42.287Z,99680.31
2019-01-08T14:39:11.302Z,99687.73
2019-01-08T14:41:40.353Z,99685.11
2019-01-08T14:44:09.395Z,99677.30
2019-01-08T14:46:38.512Z,99677.36
2019-01-08T14:49:07.555Z,99677.78
2019-01-08T14:51:36.671Z,99676.91
2019-01-08T14:54:05.703Z,99670.38
2019-01-08T14:56:34.709Z,99675.59
2019-01-08T14:59:03.749Z,99684.29
2019-01-08T15:01:32.734Z,99672.08
2019-01-08T15:04:01.804Z,99706.95
2019-01-08T15:06:30.728Z,99690.42
2019-01-08T15:08:59.794Z,99678.66
2019-01-08T15:11:28.819Z,99684.34
2019-01-08T15:13:57.977Z,99677.42
2019-01-08T15:16:27.065Z,99678.73
2019-01-08T15:18:56.116Z,99678.32
2019-01-08T15:21:25.154Z,99669.20
2019-01-08T15:23:54.322Z,99657.89
2019-01-08T15:26:23.540Z,99669.67
2019-01-08T15:28:52.609Z,99666.19
2019-01-08T15:31:21.586Z,99669.66
2019-01-08T15:33:50.640Z,99673.60
2019-01-08T15:36:19.705Z,99683.66
2019-01-08T15:38:49.368Z,99721.50
2019-01-08T15:41:19.278Z,99733.67
2019-01-08T15:43:50.860Z,99735.42
2019-01-08T15:46:19.904Z,99730.65
2019-01-08T15:48:48.923Z,99734.98
2019-01-08T15:51:17.990Z,99723.67
2019-01-08T15:53:47.092Z,99724.13
2019-01-08T15:56:16.190Z,99720.20
2019-01-08T15:58:45.273Z,99725.44
2019-01-08T16:01:14.329Z,99711.95
2019-01-08T16:03:43.463Z,99721.53
2019-01-08T16:06:12.600Z,99720.22
2019-01-08T16:08:41.679Z,99725.88
2019-01-08T16:11:10.694Z,99723.67
2019-01-08T16:13:39.808Z,99720.64
2019-01-08T16:16:08.842Z,99724.11
2019-01-08T16:18:38.129Z,99714.98
2019-01-08T16:21:07.188Z,99725.88
2019-01-08T16:23:36.228Z,99721.52
2019-01-08T16:26:05.340Z,99711.06
2019-01-08T16:28:34.410Z,99713.23
2019-01-08T16:31:03.538Z,99717.61
2019-01-08T16:33:32.654Z,99698.02
2019-01-08T16:36:01.938Z,99702.36
2019-01-08T16:38:31.025Z,99717.63
2019-01-08T16:41:00.162Z,99718.93
2019-01-08T16:43:29.362Z,99713.70
2019-01-08T16:45:58.485Z,99712.83
2019-01-08T16:48:27.512Z,99708.47
2019-01-08T16:50:56.712Z,99712.37
2019-01-08T16:53:25.842Z,99715.44
2019-01-08T16:55:54.939Z,99702.36
2019-01-08T16:58:24.092Z,99707.16
2019-01-08T17:00:53.169Z,99709.33
2019-01-08T17:03:25.554Z,99700.18
2019-01-08T17:05:53.059Z,99701.48
2019-01-08T17:08:22.164Z,99682.38
2019-01-08T17:10:51.367Z,99690.66
2019-01-08T17:13:20.509Z,99690.63
2019-01-08T17:15:49.945Z,99698.03
2019-01-08T17:18:19.020Z,99709.80
2019-01-08T17:20:48.106Z,99718.94
2019-01-08T17:23:17.149Z,99733.30
2019-01-08T17:25:48.099Z,99733.71
2019-01-08T17:28:17.011Z,99728.07
2019-01-08T17:30:46.130Z,99728.95
2019-01-08T17:33:15.143Z,99734.58
2019-01-08T17:35:44.287Z,99725.90
2019-01-08T17:38:13.494Z,99715.00
2019-01-08T17:40:42.658Z,99725.88
2019-01-08T17:43:11.694Z,99723.70
2019-01-08T17:45:40.812Z,99718.48
2019-01-08T17:48:09.944Z,99724.14
2019-01-08T17:50:39.054Z,99721.55
2019-01-08T17:53:08.142Z,99725.89
2019-01-08T17:55:37.202Z,99715.01
2019-01-08T17:58:37.556Z,99714.61
2019-01-08T18:01:15.409Z,99725.47
2019-01-08T18:03:44.563Z,99726.37
2019-01-08T18:06:13.665Z,99732.91
2019-01-08T18:08:42.839Z,99743.77
2019-01-08T18:11:11.948Z,99756.80
2019-01-08T18:13:41.023Z,99748.99
2019-01-08T18:16:10.103Z,99744.63
2019-01-08T18:18:39.222Z,99744.20
2019-01-08T18:21:08.280Z,99742.45
2019-01-08T18:23:37.529Z,99736.82
2019-01-08T18:26:07.021Z,99732.42
2019-01-08T18:28:36.178Z,99737.66
2019-01-08T18:31:05.413Z,99733.30
2019-01-08T18:33:34.659Z,99742.84
2019-01-08T18:36:03.822Z,99744.15
2019-01-08T18:38:33.059Z,99731.53
2019-01-08T18:41:02.194Z,99745.47
2019-01-08T18:43:31.428Z,99745.03
2019-01-08T18:46:00.652Z,99732.86
2019-01-08T18:48:30.763Z,99731.56
2019-01-08T18:50:59.818Z,99730.72
2019-01-08T18:53:28.863Z,99726.80
2019-01-08T18:55:58.083Z,99727.27
2019-01-08T18:58:27.153Z,99729.42
2019-01-08T19:00:56.242Z,99725.95
2019-01-08T19:03:25.439Z,99722.88
2019-01-08T19:05:54.520Z,99717.67
2019-01-08T19:08:24.746Z,99720.72
2019-01-08T19:10:53.859Z,99721.59
2019-01-08T19:13:23.108Z,99726.81
2019-01-08T19:15:52.257Z,99732.00
2019-01-08T19:18:21.378Z,99739.41
2019-01-08T19:20:50.378Z,99754.64
2019-01-08T19:23:19.362Z,99762.89
2019-01-08T19:25:48.457Z,99769.87
2019-01-08T19:28:17.546Z,99757.67
2019-01-08T19:30:46.633Z,99762.46
2019-01-08T19:33:15.640Z,99769.84
2019-01-08T19:35:44.715Z,99770.72
2019-01-08T19:38:13.778Z,99766.38
2019-01-08T19:40:42.877Z,99759.88
2019-01-08T19:43:11.977Z,99762.02
2019-01-08T19:45:41.031Z,99754.66
2019-01-08T19:48:10.100Z,99761.98
2019-01-08T19:50:39.267Z,99752.87
2019-01-08T19:53:08.564Z,99772.42
2019-01-08T19:55:37.776Z,99764.59
2019-01-08T19:58:06.925Z,99775.85
2019-01-08T20:00:36.060Z,99783.23
2019-01-08T20:03:05.240Z,99776.71
2019-01-08T20:05:34.383Z,99778.02
2019-01-08T20:08:03.428Z,99781.91
2019-01-08T20:10:32.747Z,99769.31
2019-01-08T20:13:01.947Z,99779.33
2019-01-08T20:15:30.949Z,99768.45
2019-01-08T20:18:00.053Z,99769.75
2019-01-08T20:20:29.137Z,99780.61
2019-01-08T20:22:58.315Z,99762.81
2019-01-08T20:25:27.409Z,99761.09
2019-01-08T20:27:56.538Z,99778.45
2019-01-08T20:30:25.610Z,99778.88
2019-01-08T20:32:54.733Z,99774.98
2019-01-08T20:35:23.936Z,99759.78
2019-01-08T20:37:52.959Z,99775.42
2019-01-08T20:40:22.296Z,99769.32
2019-01-08T20:42:51.527Z,99776.31
2019-01-08T20:45:20.644Z,99769.77
2019-01-08T20:47:49.663Z,99769.78
2019-01-08T20:50:18.870Z,99764.99
2019-01-08T20:52:48.264Z,99767.59
2019-01-08T20:55:17.332Z,99764.98
2019-01-08T20:57:46.414Z,99760.23
2019-01-08T21:00:15.565Z,99761.52
2019-01-08T21:02:44.601Z,99762.39
2019-01-08T21:05:13.697Z,99771.95
2019-01-08T21:07:42.755Z,99788.47
2019-01-08T21:10:11.796Z,99800.59
2019-01-08T21:12:40.813Z,99788.87
2019-01-08T21:15:09.870Z,99784.96
2019-01-08T21:17:38.940Z,99779.31
2019-01-08T21:20:08.166Z,99780.60
2019-01-08T21:22:37.161Z,99766.23
2019-01-08T21:25:06.301Z,99769.31
2019-01-08T21:27:35.391Z,99771.91
2019-01-08T21:30:05.046Z,99761.05
2019-01-08T21:32:34.144Z,99762.80
2019-01-08T21:35:03.485Z,99758.00
2019-01-08T21:37:32.480Z,99764.52
2019-01-08T21:40:01.499Z,99758.00
2019-01-08T21:42:30.645Z,99754.52
2019-01-08T21:44:59.848Z,99764.93
